sensor_id;sensor_type;location;lat;lon;timestamp;P1;durP1;ratioP1;P2;durP2;ratioP2
67272;SDS011;54190;49.770;9.250;2023-07-29T00:01:42;4.10;;;2.60;;
67272;SDS011;54190;49.770;9.250;2023-07-29T00:04:08;10.80;;;2.80;;
67272;SDS011;54190;49.770;9.250;2023-07-29T00:06:34;3.70;;;3.10;;
67272;SDS011;54190;49.770;9.250;2023-07-29T00:09:01;4.53;;;3.10;;
67272;SDS011;54190;49.770;9.250;2023-07-29T00:11:27;3.57;;;2.80;;
67272;SDS011;54190;49.770;9.250;2023-07-29T00:13:53;5.57;;;2.97;;
67272;SDS011;54190;49.770;9.250;2023-07-29T00:16:19;3.60;;;2.73;;
67272;SDS011;54190;49.770;9.250;2023-07-29T00:18:48;5.63;;;2.70;;
67272;SDS011;54190;49.770;9.250;2023-07-29T00:21:14;4.93;;;3.50;;
67272;SDS011;54190;49.770;9.250;2023-07-29T00:23:40;4.73;;;3.00;;
67272;SDS011;54190;49.770;9.250;2023-07-29T00:26:05;4.50;;;3.30;;
67272;SDS011;54190;49.770;9.250;2023-07-29T00:28:31;5.00;;;3.40;;
67272;SDS011;54190;49.770;9.250;2023-07-29T00:30:58;8.53;;;3.47;;
67272;SDS011;54190;49.770;9.250;2023-07-29T00:33:23;6.60;;;3.07;;
67272;SDS011;54190;49.770;9.250;2023-07-29T00:35:49;9.70;;;3.90;;
67272;SDS011;54190;49.770;9.250;2023-07-29T00:38:15;6.33;;;3.40;;
67272;SDS011;54190;49.770;9.250;2023-07-29T00:40:40;5.30;;;3.53;;
67272;SDS011;54190;49.770;9.250;2023-07-29T00:43:07;5.93;;;3.57;;
67272;SDS011;54190;49.770;9.250;2023-07-29T00:45:34;4.27;;;3.70;;
67272;SDS011;54190;49.770;9.250;2023-07-29T00:48:01;4.00;;;3.30;;
67272;SDS011;54190;49.770;9.250;2023-07-29T00:50:27;6.60;;;3.80;;
67272;SDS011;54190;49.770;9.250;2023-07-29T00:52:54;5.73;;;3.60;;
67272;SDS011;54190;49.770;9.250;2023-07-29T00:55:22;4.43;;;4.00;;
67272;SDS011;54190;49.770;9.250;2023-07-29T00:57:48;4.17;;;3.30;;
67272;SDS011;54190;49.770;9.250;2023-07-29T01:00:16;7.00;;;3.87;;
67272;SDS011;54190;49.770;9.250;2023-07-29T01:02:43;6.23;;;4.27;;
67272;SDS011;54190;49.770;9.250;2023-07-29T01:05:08;4.00;;;3.50;;
67272;SDS011;54190;49.770;9.250;2023-07-29T01:07:58;5.03;;;4.23;;
67272;SDS011;54190;49.770;9.250;2023-07-29T01:13:17;4.60;;;3.57;;
67272;SDS011;54190;49.770;9.250;2023-07-29T01:15:54;5.03;;;4.10;;
67272;SDS011;54190;49.770;9.250;2023-07-29T01:18:24;6.17;;;4.03;;
67272;SDS011;54190;49.770;9.250;2023-07-29T01:20:54;7.57;;;4.00;;
67272;SDS011;54190;49.770;9.250;2023-07-29T01:23:28;7.23;;;3.80;;
67272;SDS011;54190;49.770;9.250;2023-07-29T01:25:58;4.93;;;3.50;;
67272;SDS011;54190;49.770;9.250;2023-07-29T01:28:24;6.17;;;3.70;;
67272;SDS011;54190;49.770;9.250;2023-07-29T01:30:52;6.57;;;4.00;;
67272;SDS011;54190;49.770;9.250;2023-07-29T01:33:35;4.60;;;4.10;;
67272;SDS011;54190;49.770;9.250;2023-07-29T01:36:15;5.33;;;3.63;;
67272;SDS011;54190;49.770;9.250;2023-07-29T01:38:45;4.57;;;4.07;;
67272;SDS011;54190;49.770;9.250;2023-07-29T01:41:14;5.40;;;4.00;;
67272;SDS011;54190;49.770;9.250;2023-07-29T01:43:41;4.97;;;4.30;;
67272;SDS011;54190;49.770;9.250;2023-07-29T01:46:11;5.23;;;3.67;;
67272;SDS011;54190;49.770;9.250;2023-07-29T01:48:38;6.00;;;4.00;;
67272;SDS011;54190;49.770;9.250;2023-07-29T01:51:04;4.77;;;3.90;;
67272;SDS011;54190;49.770;9.250;2023-07-29T01:53:31;6.90;;;3.20;;
67272;SDS011;54190;49.770;9.250;2023-07-29T01:55:56;6.07;;;3.80;;
67272;SDS011;54190;49.770;9.250;2023-07-29T01:58:23;6.23;;;3.90;;
67272;SDS011;54190;49.770;9.250;2023-07-29T02:00:49;8.50;;;3.20;;
67272;SDS011;54190;49.770;9.250;2023-07-29T02:03:15;3.90;;;3.20;;
67272;SDS011;54190;49.770;9.250;2023-07-29T02:05:41;3.60;;;3.03;;
67272;SDS011;54190;49.770;9.250;2023-07-29T02:08:10;4.20;;;3.63;;
67272;SDS011;54190;49.770;9.250;2023-07-29T02:10:37;5.20;;;4.30;;
67272;SDS011;54190;49.770;9.250;2023-07-29T02:13:03;6.93;;;4.80;;
67272;SDS011;54190;49.770;9.250;2023-07-29T02:15:29;6.00;;;3.93;;
67272;SDS011;54190;49.770;9.250;2023-07-29T02:17:55;7.70;;;3.90;;
67272;SDS011;54190;49.770;9.250;2023-07-29T02:20:21;6.37;;;4.17;;
67272;SDS011;54190;49.770;9.250;2023-07-29T02:22:47;7.07;;;4.40;;
67272;SDS011;54190;49.770;9.250;2023-07-29T02:25:13;6.13;;;4.30;;
67272;SDS011;54190;49.770;9.250;2023-07-29T02:27:39;7.87;;;4.40;;
67272;SDS011;54190;49.770;9.250;2023-07-29T02:30:05;5.20;;;4.70;;
67272;SDS011;54190;49.770;9.250;2023-07-29T02:32:32;10.93;;;5.63;;
67272;SDS011;54190;49.770;9.250;2023-07-29T02:34:57;6.30;;;5.20;;
67272;SDS011;54190;49.770;9.250;2023-07-29T02:37:29;7.53;;;5.67;;
67272;SDS011;54190;49.770;9.250;2023-07-29T02:39:55;6.93;;;4.87;;
67272;SDS011;54190;49.770;9.250;2023-07-29T02:42:20;8.50;;;4.67;;
67272;SDS011;54190;49.770;9.250;2023-07-29T02:44:46;12.40;;;5.17;;
67272;SDS011;54190;49.770;9.250;2023-07-29T02:47:12;8.40;;;5.13;;
67272;SDS011;54190;49.770;9.250;2023-07-29T02:49:37;10.53;;;5.30;;
67272;SDS011;54190;49.770;9.250;2023-07-29T02:52:03;7.77;;;5.00;;
67272;SDS011;54190;49.770;9.250;2023-07-29T02:54:29;6.23;;;5.03;;
67272;SDS011;54190;49.770;9.250;2023-07-29T02:56:55;7.00;;;4.90;;
67272;SDS011;54190;49.770;9.250;2023-07-29T02:59:21;8.40;;;4.47;;
67272;SDS011;54190;49.770;9.250;2023-07-29T03:01:47;5.23;;;3.60;;
67272;SDS011;54190;49.770;9.250;2023-07-29T03:04:12;4.80;;;3.10;;
67272;SDS011;54190;49.770;9.250;2023-07-29T03:06:38;4.23;;;2.97;;
67272;SDS011;54190;49.770;9.250;2023-07-29T03:09:04;4.00;;;2.80;;
67272;SDS011;54190;49.770;9.250;2023-07-29T03:11:30;5.73;;;2.93;;
67272;SDS011;54190;49.770;9.250;2023-07-29T03:13:56;4.67;;;3.60;;
67272;SDS011;54190;49.770;9.250;2023-07-29T03:16:22;7.63;;;3.70;;
67272;SDS011;54190;49.770;9.250;2023-07-29T03:18:52;5.57;;;3.13;;
67272;SDS011;54190;49.770;9.250;2023-07-29T03:21:18;5.80;;;3.10;;
67272;SDS011;54190;49.770;9.250;2023-07-29T03:23:44;9.70;;;4.03;;
67272;SDS011;54190;49.770;9.250;2023-07-29T03:26:09;6.63;;;3.33;;
67272;SDS011;54190;49.770;9.250;2023-07-29T03:28:36;4.70;;;3.37;;
67272;SDS011;54190;49.770;9.250;2023-07-29T03:31:04;5.00;;;3.20;;
67272;SDS011;54190;49.770;9.250;2023-07-29T03:33:31;3.87;;;2.90;;
67272;SDS011;54190;49.770;9.250;2023-07-29T03:35:57;3.53;;;3.10;;
67272;SDS011;54190;49.770;9.250;2023-07-29T03:38:22;4.10;;;2.80;;
67272;SDS011;54190;49.770;9.250;2023-07-29T03:40:48;4.07;;;3.20;;
67272;SDS011;54190;49.770;9.250;2023-07-29T03:43:14;4.30;;;3.40;;
67272;SDS011;54190;49.770;9.250;2023-07-29T03:45:41;5.50;;;3.40;;
67272;SDS011;54190;49.770;9.250;2023-07-29T03:48:07;6.03;;;3.43;;
67272;SDS011;54190;49.770;9.250;2023-07-29T03:50:33;3.30;;;2.90;;
67272;SDS011;54190;49.770;9.250;2023-07-29T03:53:01;4.20;;;3.10;;
67272;SDS011;54190;49.770;9.250;2023-07-29T03:55:30;6.40;;;3.67;;
67272;SDS011;54190;49.770;9.250;2023-07-29T03:57:56;5.00;;;3.60;;
67272;SDS011;54190;49.770;9.250;2023-07-29T04:00:23;6.33;;;3.57;;
67272;SDS011;54190;49.770;9.250;2023-07-29T04:02:48;3.67;;;2.93;;
67272;SDS011;54190;49.770;9.250;2023-07-29T04:05:14;7.70;;;3.47;;
67272;SDS011;54190;49.770;9.250;2023-07-29T04:07:40;10.63;;;3.50;;
67272;SDS011;54190;49.770;9.250;2023-07-29T04:10:06;4.80;;;4.00;;
67272;SDS011;54190;49.770;9.250;2023-07-29T04:12:32;5.30;;;3.70;;
67272;SDS011;54190;49.770;9.250;2023-07-29T04:14:58;4.90;;;3.67;;
67272;SDS011;54190;49.770;9.250;2023-07-29T04:17:24;5.23;;;3.50;;
67272;SDS011;54190;49.770;9.250;2023-07-29T04:19:49;3.40;;;3.03;;
67272;SDS011;54190;49.770;9.250;2023-07-29T04:22:16;6.83;;;3.50;;
67272;SDS011;54190;49.770;9.250;2023-07-29T04:24:42;5.10;;;3.40;;
67272;SDS011;54190;49.770;9.250;2023-07-29T04:27:08;4.70;;;3.50;;
67272;SDS011;54190;49.770;9.250;2023-07-29T04:29:33;5.53;;;3.40;;
67272;SDS011;54190;49.770;9.250;2023-07-29T04:32:01;4.37;;;3.50;;
67272;SDS011;54190;49.770;9.250;2023-07-29T04:34:27;6.47;;;4.07;;
67272;SDS011;54190;49.770;9.250;2023-07-29T04:36:53;4.60;;;3.50;;
67272;SDS011;54190;49.770;9.250;2023-07-29T04:39:19;6.07;;;3.93;;
67272;SDS011;54190;49.770;9.250;2023-07-29T04:41:45;4.43;;;3.90;;
67272;SDS011;54190;49.770;9.250;2023-07-29T04:44:11;4.90;;;3.30;;
67272;SDS011;54190;49.770;9.250;2023-07-29T04:46:36;4.40;;;3.70;;
67272;SDS011;54190;49.770;9.250;2023-07-29T04:49:03;5.33;;;3.90;;
67272;SDS011;54190;49.770;9.250;2023-07-29T04:51:29;4.80;;;3.73;;
67272;SDS011;54190;49.770;9.250;2023-07-29T04:53:56;4.63;;;3.67;;
67272;SDS011;54190;49.770;9.250;2023-07-29T04:56:23;3.93;;;3.53;;
67272;SDS011;54190;49.770;9.250;2023-07-29T04:58:49;4.97;;;3.60;;
67272;SDS011;54190;49.770;9.250;2023-07-29T05:01:14;4.97;;;4.03;;
67272;SDS011;54190;49.770;9.250;2023-07-29T05:03:40;5.07;;;3.40;;
67272;SDS011;54190;49.770;9.250;2023-07-29T05:06:06;4.90;;;3.57;;
67272;SDS011;54190;49.770;9.250;2023-07-29T05:08:32;7.00;;;3.70;;
67272;SDS011;54190;49.770;9.250;2023-07-29T05:10:57;4.97;;;3.60;;
67272;SDS011;54190;49.770;9.250;2023-07-29T05:13:23;5.57;;;3.40;;
67272;SDS011;54190;49.770;9.250;2023-07-29T05:15:49;4.20;;;3.27;;
67272;SDS011;54190;49.770;9.250;2023-07-29T05:18:16;4.30;;;3.13;;
67272;SDS011;54190;49.770;9.250;2023-07-29T05:20:42;4.17;;;3.53;;
67272;SDS011;54190;49.770;9.250;2023-07-29T05:23:08;4.23;;;3.00;;
67272;SDS011;54190;49.770;9.250;2023-07-29T05:25:34;4.50;;;3.23;;
67272;SDS011;54190;49.770;9.250;2023-07-29T05:28:00;5.10;;;3.47;;
67272;SDS011;54190;49.770;9.250;2023-07-29T05:30:26;5.20;;;3.40;;
67272;SDS011;54190;49.770;9.250;2023-07-29T05:32:56;4.97;;;3.23;;
67272;SDS011;54190;49.770;9.250;2023-07-29T05:35:22;4.53;;;3.10;;
67272;SDS011;54190;49.770;9.250;2023-07-29T05:37:48;5.77;;;2.87;;
67272;SDS011;54190;49.770;9.250;2023-07-29T05:40:14;4.53;;;2.70;;
67272;SDS011;54190;49.770;9.250;2023-07-29T05:42:39;4.07;;;3.20;;
67272;SDS011;54190;49.770;9.250;2023-07-29T05:45:05;3.90;;;2.70;;
67272;SDS011;54190;49.770;9.250;2023-07-29T05:47:32;5.67;;;2.50;;
67272;SDS011;54190;49.770;9.250;2023-07-29T05:49:57;3.37;;;2.63;;
67272;SDS011;54190;49.770;9.250;2023-07-29T05:52:23;3.73;;;2.77;;
67272;SDS011;54190;49.770;9.250;2023-07-29T05:54:48;3.73;;;2.80;;
67272;SDS011;54190;49.770;9.250;2023-07-29T05:57:14;3.63;;;2.57;;
67272;SDS011;54190;49.770;9.250;2023-07-29T05:59:40;5.73;;;2.40;;
67272;SDS011;54190;49.770;9.250;2023-07-29T06:02:05;3.37;;;2.53;;
67272;SDS011;54190;49.770;9.250;2023-07-29T06:04:31;4.20;;;2.30;;
67272;SDS011;54190;49.770;9.250;2023-07-29T06:06:57;5.13;;;2.07;;
67272;SDS011;54190;49.770;9.250;2023-07-29T06:09:22;3.63;;;2.60;;
67272;SDS011;54190;49.770;9.250;2023-07-29T06:11:50;5.07;;;2.80;;
67272;SDS011;54190;49.770;9.250;2023-07-29T06:14:16;6.70;;;2.57;;
67272;SDS011;54190;49.770;9.250;2023-07-29T06:16:42;3.30;;;2.60;;
67272;SDS011;54190;49.770;9.250;2023-07-29T06:19:07;3.53;;;2.30;;
67272;SDS011;54190;49.770;9.250;2023-07-29T06:21:34;4.73;;;2.60;;
67272;SDS011;54190;49.770;9.250;2023-07-29T06:24:00;4.13;;;2.87;;
67272;SDS011;54190;49.770;9.250;2023-07-29T06:26:26;4.37;;;2.30;;
67272;SDS011;54190;49.770;9.250;2023-07-29T06:28:52;3.10;;;2.40;;
67272;SDS011;54190;49.770;9.250;2023-07-29T06:31:18;3.17;;;2.00;;
67272;SDS011;54190;49.770;9.250;2023-07-29T06:33:43;3.87;;;2.17;;
67272;SDS011;54190;49.770;9.250;2023-07-29T06:36:09;6.17;;;2.30;;
67272;SDS011;54190;49.770;9.250;2023-07-29T06:38:35;2.93;;;2.13;;
67272;SDS011;54190;49.770;9.250;2023-07-29T06:41:00;4.03;;;2.60;;
67272;SDS011;54190;49.770;9.250;2023-07-29T06:43:26;2.90;;;2.07;;
67272;SDS011;54190;49.770;9.250;2023-07-29T06:45:52;5.30;;;2.60;;
67272;SDS011;54190;49.770;9.250;2023-07-29T06:48:17;3.90;;;2.43;;
67272;SDS011;54190;49.770;9.250;2023-07-29T06:50:44;3.40;;;2.07;;
67272;SDS011;54190;49.770;9.250;2023-07-29T06:53:09;3.60;;;2.20;;
67272;SDS011;54190;49.770;9.250;2023-07-29T06:55:35;2.60;;;1.77;;
67272;SDS011;54190;49.770;9.250;2023-07-29T06:58:01;3.70;;;1.77;;
67272;SDS011;54190;49.770;9.250;2023-07-29T07:00:27;2.40;;;1.60;;
67272;SDS011;54190;49.770;9.250;2023-07-29T07:02:53;4.03;;;1.80;;
67272;SDS011;54190;49.770;9.250;2023-07-29T07:05:18;3.47;;;1.40;;
67272;SDS011;54190;49.770;9.250;2023-07-29T07:07:44;2.20;;;1.40;;
67272;SDS011;54190;49.770;9.250;2023-07-29T07:10:10;2.63;;;1.30;;
67272;SDS011;54190;49.770;9.250;2023-07-29T07:12:35;3.00;;;1.33;;
67272;SDS011;54190;49.770;9.250;2023-07-29T07:15:01;2.13;;;1.30;;
67272;SDS011;54190;49.770;9.250;2023-07-29T07:17:27;2.23;;;1.37;;
67272;SDS011;54190;49.770;9.250;2023-07-29T07:19:53;2.10;;;1.23;;
67272;SDS011;54190;49.770;9.250;2023-07-29T07:22:18;2.00;;;1.30;;
67272;SDS011;54190;49.770;9.250;2023-07-29T07:24:44;2.50;;;1.30;;
67272;SDS011;54190;49.770;9.250;2023-07-29T07:27:09;2.20;;;1.30;;
67272;SDS011;54190;49.770;9.250;2023-07-29T07:29:35;2.90;;;1.27;;
67272;SDS011;54190;49.770;9.250;2023-07-29T07:32:01;2.20;;;1.10;;
67272;SDS011;54190;49.770;9.250;2023-07-29T07:34:27;2.60;;;1.27;;
67272;SDS011;54190;49.770;9.250;2023-07-29T07:36:53;2.37;;;1.30;;
67272;SDS011;54190;49.770;9.250;2023-07-29T07:39:18;6.70;;;1.27;;
67272;SDS011;54190;49.770;9.250;2023-07-29T07:41:44;2.50;;;1.20;;
67272;SDS011;54190;49.770;9.250;2023-07-29T07:44:10;2.53;;;1.30;;
67272;SDS011;54190;49.770;9.250;2023-07-29T07:46:37;4.40;;;1.40;;
67272;SDS011;54190;49.770;9.250;2023-07-29T07:49:03;2.10;;;1.10;;
67272;SDS011;54190;49.770;9.250;2023-07-29T07:51:29;5.13;;;1.70;;
67272;SDS011;54190;49.770;9.250;2023-07-29T07:53:55;8.10;;;2.40;;
67272;SDS011;54190;49.770;9.250;2023-07-29T07:56:20;8.20;;;2.30;;
67272;SDS011;54190;49.770;9.250;2023-07-29T07:58:46;11.33;;;1.87;;
67272;SDS011;54190;49.770;9.250;2023-07-29T08:01:12;6.07;;;1.87;;
67272;SDS011;54190;49.770;9.250;2023-07-29T08:03:37;3.17;;;1.20;;
67272;SDS011;54190;49.770;9.250;2023-07-29T08:06:03;2.30;;;1.00;;
67272;SDS011;54190;49.770;9.250;2023-07-29T08:08:30;5.73;;;1.60;;
67272;SDS011;54190;49.770;9.250;2023-07-29T08:10:58;2.67;;;1.43;;
67272;SDS011;54190;49.770;9.250;2023-07-29T08:13:25;2.70;;;1.20;;
67272;SDS011;54190;49.770;9.250;2023-07-29T08:15:51;3.07;;;1.10;;
67272;SDS011;54190;49.770;9.250;2023-07-29T08:18:18;2.00;;;1.10;;
67272;SDS011;54190;49.770;9.250;2023-07-29T08:20:56;5.40;;;1.37;;
67272;SDS011;54190;49.770;9.250;2023-07-29T08:23:24;3.20;;;1.50;;
67272;SDS011;54190;49.770;9.250;2023-07-29T08:25:54;3.70;;;1.53;;
67272;SDS011;54190;49.770;9.250;2023-07-29T08:28:24;3.07;;;1.50;;
67272;SDS011;54190;49.770;9.250;2023-07-29T08:30:50;2.47;;;1.23;;
67272;SDS011;54190;49.770;9.250;2023-07-29T08:33:16;3.23;;;1.27;;
67272;SDS011;54190;49.770;9.250;2023-07-29T08:35:41;4.63;;;1.20;;
67272;SDS011;54190;49.770;9.250;2023-07-29T08:38:07;2.93;;;1.40;;
67272;SDS011;54190;49.770;9.250;2023-07-29T08:40:34;3.70;;;1.37;;
67272;SDS011;54190;49.770;9.250;2023-07-29T08:43:04;3.27;;;1.60;;
67272;SDS011;54190;49.770;9.250;2023-07-29T08:45:32;3.57;;;1.70;;
67272;SDS011;54190;49.770;9.250;2023-07-29T08:48:00;5.17;;;2.00;;
67272;SDS011;54190;49.770;9.250;2023-07-29T08:50:31;3.17;;;1.57;;
67272;SDS011;54190;49.770;9.250;2023-07-29T08:52:58;2.60;;;1.40;;
67272;SDS011;54190;49.770;9.250;2023-07-29T08:55:26;3.47;;;1.47;;
67272;SDS011;54190;49.770;9.250;2023-07-29T08:57:53;2.30;;;1.40;;
67272;SDS011;54190;49.770;9.250;2023-07-29T09:00:19;2.43;;;1.43;;
67272;SDS011;54190;49.770;9.250;2023-07-29T09:02:45;3.60;;;1.73;;
67272;SDS011;54190;49.770;9.250;2023-07-29T09:05:11;2.80;;;1.60;;
67272;SDS011;54190;49.770;9.250;2023-07-29T09:07:36;3.03;;;1.43;;
67272;SDS011;54190;49.770;9.250;2023-07-29T09:10:04;5.40;;;1.67;;
67272;SDS011;54190;49.770;9.250;2023-07-29T09:12:30;4.43;;;1.40;;
67272;SDS011;54190;49.770;9.250;2023-07-29T09:14:55;2.80;;;1.80;;
67272;SDS011;54190;49.770;9.250;2023-07-29T09:17:21;3.30;;;1.50;;
67272;SDS011;54190;49.770;9.250;2023-07-29T09:19:48;3.30;;;1.80;;
67272;SDS011;54190;49.770;9.250;2023-07-29T09:22:17;2.60;;;1.40;;
67272;SDS011;54190;49.770;9.250;2023-07-29T09:24:45;6.20;;;2.30;;
67272;SDS011;54190;49.770;9.250;2023-07-29T09:27:23;4.83;;;2.70;;
67272;SDS011;54190;49.770;9.250;2023-07-29T09:29:49;2.13;;;1.33;;
67272;SDS011;54190;49.770;9.250;2023-07-29T09:32:21;3.10;;;1.80;;
67272;SDS011;54190;49.770;9.250;2023-07-29T09:34:48;2.93;;;1.70;;
67272;SDS011;54190;49.770;9.250;2023-07-29T09:37:23;3.20;;;1.80;;
67272;SDS011;54190;49.770;9.250;2023-07-29T09:39:49;3.93;;;2.03;;
67272;SDS011;54190;49.770;9.250;2023-07-29T09:42:19;4.17;;;1.90;;
67272;SDS011;54190;49.770;9.250;2023-07-29T09:44:46;2.73;;;1.80;;
67272;SDS011;54190;49.770;9.250;2023-07-29T09:47:19;6.90;;;3.63;;
67272;SDS011;54190;49.770;9.250;2023-07-29T09:49:46;4.93;;;2.00;;
67272;SDS011;54190;49.770;9.250;2023-07-29T09:52:14;3.20;;;2.00;;
67272;SDS011;54190;49.770;9.250;2023-07-29T09:54:41;4.30;;;2.00;;
67272;SDS011;54190;49.770;9.250;2023-07-29T09:57:09;2.50;;;1.73;;
67272;SDS011;54190;49.770;9.250;2023-07-29T09:59:42;4.40;;;2.00;;
67272;SDS011;54190;49.770;9.250;2023-07-29T10:02:15;3.80;;;2.10;;
67272;SDS011;54190;49.770;9.250;2023-07-29T10:04:42;4.03;;;1.77;;
67272;SDS011;54190;49.770;9.250;2023-07-29T10:07:09;2.90;;;1.90;;
67272;SDS011;54190;49.770;9.250;2023-07-29T10:09:36;3.30;;;2.27;;
67272;SDS011;54190;49.770;9.250;2023-07-29T10:12:04;4.43;;;1.93;;
67272;SDS011;54190;49.770;9.250;2023-07-29T10:14:32;2.90;;;2.27;;
67272;SDS011;54190;49.770;9.250;2023-07-29T10:16:57;8.70;;;2.53;;
67272;SDS011;54190;49.770;9.250;2023-07-29T10:19:24;3.50;;;2.10;;
67272;SDS011;54190;49.770;9.250;2023-07-29T10:21:51;3.70;;;2.10;;
67272;SDS011;54190;49.770;9.250;2023-07-29T10:24:21;3.40;;;2.30;;
67272;SDS011;54190;49.770;9.250;2023-07-29T10:26:56;5.47;;;2.27;;
67272;SDS011;54190;49.770;9.250;2023-07-29T10:29:28;2.90;;;2.23;;
67272;SDS011;54190;49.770;9.250;2023-07-29T10:32:01;3.20;;;2.27;;
67272;SDS011;54190;49.770;9.250;2023-07-29T10:34:28;3.33;;;2.17;;
67272;SDS011;54190;49.770;9.250;2023-07-29T10:36:56;3.83;;;2.43;;
67272;SDS011;54190;49.770;9.250;2023-07-29T10:39:24;2.90;;;2.17;;
67272;SDS011;54190;49.770;9.250;2023-07-29T10:41:57;3.77;;;2.20;;
67272;SDS011;54190;49.770;9.250;2023-07-29T10:47:32;3.30;;;2.57;;
67272;SDS011;54190;49.770;9.250;2023-07-29T10:49:58;3.03;;;2.40;;
67272;SDS011;54190;49.770;9.250;2023-07-29T10:54:59;3.00;;;2.20;;
67272;SDS011;54190;49.770;9.250;2023-07-29T10:57:31;2.97;;;1.97;;
67272;SDS011;54190;49.770;9.250;2023-07-29T11:00:02;3.53;;;2.20;;
67272;SDS011;54190;49.770;9.250;2023-07-29T11:02:34;4.53;;;2.83;;
67272;SDS011;54190;49.770;9.250;2023-07-29T11:05:09;4.20;;;2.47;;
67272;SDS011;54190;49.770;9.250;2023-07-29T11:07:43;3.40;;;2.13;;
67272;SDS011;54190;49.770;9.250;2023-07-29T11:10:13;2.80;;;2.23;;
67272;SDS011;54190;49.770;9.250;2023-07-29T11:12:47;3.90;;;2.03;;
67272;SDS011;54190;49.770;9.250;2023-07-29T11:15:17;4.23;;;2.87;;
67272;SDS011;54190;49.770;9.250;2023-07-29T11:17:44;4.30;;;3.00;;
67272;SDS011;54190;49.770;9.250;2023-07-29T11:20:30;2.60;;;2.10;;
67272;SDS011;54190;49.770;9.250;2023-07-29T11:22:58;3.23;;;2.63;;
67272;SDS011;54190;49.770;9.250;2023-07-29T11:25:26;3.33;;;2.93;;
67272;SDS011;54190;49.770;9.250;2023-07-29T11:27:54;5.80;;;2.70;;
67272;SDS011;54190;49.770;9.250;2023-07-29T11:30:21;3.93;;;2.70;;
67272;SDS011;54190;49.770;9.250;2023-07-29T11:32:48;5.57;;;3.17;;
67272;SDS011;54190;49.770;9.250;2023-07-29T11:35:15;4.77;;;3.20;;
67272;SDS011;54190;49.770;9.250;2023-07-29T11:37:43;3.53;;;3.07;;
67272;SDS011;54190;49.770;9.250;2023-07-29T11:40:13;4.13;;;3.03;;
67272;SDS011;54190;49.770;9.250;2023-07-29T11:42:43;3.47;;;2.77;;
67272;SDS011;54190;49.770;9.250;2023-07-29T11:45:10;3.83;;;2.80;;
67272;SDS011;54190;49.770;9.250;2023-07-29T11:47:37;3.17;;;2.43;;
67272;SDS011;54190;49.770;9.250;2023-07-29T11:50:03;3.50;;;2.70;;
67272;SDS011;54190;49.770;9.250;2023-07-29T11:52:31;3.10;;;2.63;;
67272;SDS011;54190;49.770;9.250;2023-07-29T11:54:58;3.23;;;2.43;;
67272;SDS011;54190;49.770;9.250;2023-07-29T11:57:27;3.47;;;2.83;;
67272;SDS011;54190;49.770;9.250;2023-07-29T11:59:52;6.47;;;3.00;;
67272;SDS011;54190;49.770;9.250;2023-07-29T12:02:19;3.40;;;2.70;;
67272;SDS011;54190;49.770;9.250;2023-07-29T12:04:46;3.70;;;2.67;;
67272;SDS011;54190;49.770;9.250;2023-07-29T12:07:13;4.40;;;2.50;;
67272;SDS011;54190;49.770;9.250;2023-07-29T12:09:40;3.10;;;2.60;;
67272;SDS011;54190;49.770;9.250;2023-07-29T12:12:07;4.50;;;2.70;;
67272;SDS011;54190;49.770;9.250;2023-07-29T12:14:33;3.80;;;2.50;;
67272;SDS011;54190;49.770;9.250;2023-07-29T12:17:00;4.00;;;2.60;;
67272;SDS011;54190;49.770;9.250;2023-07-29T12:22:03;3.63;;;2.57;;
67272;SDS011;54190;49.770;9.250;2023-07-29T12:24:30;3.03;;;2.50;;
67272;SDS011;54190;49.770;9.250;2023-07-29T12:26:56;3.73;;;2.03;;
67272;SDS011;54190;49.770;9.250;2023-07-29T12:29:22;4.10;;;2.50;;
67272;SDS011;54190;49.770;9.250;2023-07-29T12:31:48;2.83;;;2.33;;
67272;SDS011;54190;49.770;9.250;2023-07-29T12:34:21;3.93;;;2.60;;
67272;SDS011;54190;49.770;9.250;2023-07-29T12:36:48;5.80;;;2.97;;
67272;SDS011;54190;49.770;9.250;2023-07-29T12:39:31;5.30;;;2.63;;
67272;SDS011;54190;49.770;9.250;2023-07-29T12:41:59;3.00;;;2.10;;
67272;SDS011;54190;49.770;9.250;2023-07-29T12:44:30;5.20;;;4.70;;
67272;SDS011;54190;49.770;9.250;2023-07-29T12:46:57;4.50;;;2.30;;
67272;SDS011;54190;49.770;9.250;2023-07-29T12:49:24;3.60;;;2.50;;
67272;SDS011;54190;49.770;9.250;2023-07-29T12:51:50;4.87;;;2.60;;
67272;SDS011;54190;49.770;9.250;2023-07-29T12:54:15;5.40;;;2.40;;
67272;SDS011;54190;49.770;9.250;2023-07-29T12:56:41;3.27;;;2.53;;
67272;SDS011;54190;49.770;9.250;2023-07-29T12:59:06;3.50;;;2.80;;
67272;SDS011;54190;49.770;9.250;2023-07-29T13:01:32;3.50;;;2.80;;
67272;SDS011;54190;49.770;9.250;2023-07-29T13:03:57;5.47;;;2.70;;
67272;SDS011;54190;49.770;9.250;2023-07-29T13:06:23;4.40;;;2.70;;
67272;SDS011;54190;49.770;9.250;2023-07-29T13:08:49;3.97;;;2.70;;
67272;SDS011;54190;49.770;9.250;2023-07-29T13:11:15;2.83;;;2.20;;
67272;SDS011;54190;49.770;9.250;2023-07-29T13:13:41;3.40;;;2.20;;
67272;SDS011;54190;49.770;9.250;2023-07-29T13:16:07;3.93;;;2.80;;
67272;SDS011;54190;49.770;9.250;2023-07-29T13:18:33;4.70;;;2.50;;
67272;SDS011;54190;49.770;9.250;2023-07-29T13:20:59;3.80;;;2.53;;
67272;SDS011;54190;49.770;9.250;2023-07-29T13:23:28;3.30;;;2.23;;
67272;SDS011;54190;49.770;9.250;2023-07-29T13:25:55;2.90;;;2.00;;
67272;SDS011;54190;49.770;9.250;2023-07-29T13:28:20;3.10;;;2.53;;
67272;SDS011;54190;49.770;9.250;2023-07-29T13:30:46;3.90;;;2.57;;
67272;SDS011;54190;49.770;9.250;2023-07-29T13:33:12;3.50;;;2.30;;
67272;SDS011;54190;49.770;9.250;2023-07-29T13:35:38;3.30;;;2.33;;
67272;SDS011;54190;49.770;9.250;2023-07-29T13:38:03;3.90;;;2.40;;
67272;SDS011;54190;49.770;9.250;2023-07-29T13:40:29;5.43;;;2.43;;
67272;SDS011;54190;49.770;9.250;2023-07-29T13:42:55;3.27;;;2.33;;
67272;SDS011;54190;49.770;9.250;2023-07-29T13:45:21;2.83;;;2.20;;
67272;SDS011;54190;49.770;9.250;2023-07-29T13:47:47;6.00;;;2.63;;
67272;SDS011;54190;49.770;9.250;2023-07-29T13:50:13;3.80;;;2.60;;
67272;SDS011;54190;49.770;9.250;2023-07-29T13:52:39;5.77;;;2.93;;
67272;SDS011;54190;49.770;9.250;2023-07-29T13:55:05;3.37;;;2.13;;
67272;SDS011;54190;49.770;9.250;2023-07-29T13:57:31;3.50;;;2.20;;
67272;SDS011;54190;49.770;9.250;2023-07-29T13:59:57;3.00;;;2.10;;
67272;SDS011;54190;49.770;9.250;2023-07-29T14:02:23;3.70;;;2.10;;
67272;SDS011;54190;49.770;9.250;2023-07-29T14:04:51;2.53;;;1.90;;
67272;SDS011;54190;49.770;9.250;2023-07-29T14:07:17;5.30;;;2.03;;
67272;SDS011;54190;49.770;9.250;2023-07-29T14:09:42;4.03;;;2.00;;
67272;SDS011;54190;49.770;9.250;2023-07-29T14:12:08;3.00;;;1.80;;
67272;SDS011;54190;49.770;9.250;2023-07-29T14:14:38;4.00;;;2.17;;
67272;SDS011;54190;49.770;9.250;2023-07-29T14:17:04;3.57;;;1.83;;
67272;SDS011;54190;49.770;9.250;2023-07-29T14:19:30;3.43;;;2.20;;
67272;SDS011;54190;49.770;9.250;2023-07-29T14:21:57;2.83;;;1.93;;
67272;SDS011;54190;49.770;9.250;2023-07-29T14:24:22;3.23;;;2.10;;
67272;SDS011;54190;49.770;9.250;2023-07-29T14:26:48;2.63;;;2.07;;
67272;SDS011;54190;49.770;9.250;2023-07-29T14:29:14;8.60;;;2.30;;
67272;SDS011;54190;49.770;9.250;2023-07-29T14:31:40;3.63;;;2.10;;
67272;SDS011;54190;49.770;9.250;2023-07-29T14:34:05;4.40;;;2.20;;
67272;SDS011;54190;49.770;9.250;2023-07-29T14:36:31;4.10;;;2.17;;
67272;SDS011;54190;49.770;9.250;2023-07-29T14:38:57;4.37;;;1.97;;
67272;SDS011;54190;49.770;9.250;2023-07-29T14:41:22;3.17;;;2.10;;
67272;SDS011;54190;49.770;9.250;2023-07-29T14:43:48;2.30;;;1.80;;
67272;SDS011;54190;49.770;9.250;2023-07-29T14:46:13;2.50;;;1.90;;
67272;SDS011;54190;49.770;9.250;2023-07-29T14:48:39;2.83;;;1.87;;
67272;SDS011;54190;49.770;9.250;2023-07-29T14:51:05;3.30;;;2.10;;
67272;SDS011;54190;49.770;9.250;2023-07-29T14:53:30;2.93;;;2.00;;
67272;SDS011;54190;49.770;9.250;2023-07-29T14:55:56;3.07;;;1.90;;
67272;SDS011;54190;49.770;9.250;2023-07-29T14:58:22;2.70;;;2.10;;